createdAt,value
2023-05-09T00:01:12.911Z,8.55
2023-05-09T00:03:40.259Z,8.57
2023-05-09T00:06:07.871Z,8.50
2023-05-09T00:08:34.889Z,8.55
2023-05-09T00:11:02.434Z,8.58
2023-05-09T00:13:29.152Z,8.54
2023-05-09T00:15:57.427Z,8.47
2023-05-09T00:18:24.354Z,8.36
2023-05-09T00:20:51.122Z,8.44
2023-05-09T00:23:18.130Z,8.43
2023-05-09T00:25:44.877Z,8.45
2023-05-09T00:28:11.700Z,8.54
2023-05-09T00:30:38.461Z,8.53
2023-05-09T00:33:05.311Z,8.59
2023-05-09T00:35:32.647Z,8.70
2023-05-09T00:37:59.543Z,8.59
2023-05-09T00:40:26.427Z,8.54
2023-05-09T00:42:53.151Z,8.51
2023-05-09T00:45:19.893Z,8.53
2023-05-09T00:47:46.739Z,8.60
2023-05-09T00:50:13.953Z,8.64
2023-05-09T00:52:41.633Z,8.28
2023-05-09T00:55:09.110Z,8.12
2023-05-09T00:57:36.522Z,8.16
2023-05-09T01:00:04.650Z,8.25
2023-05-09T01:02:32.376Z,8.14
2023-05-09T01:04:59.586Z,8.12
2023-05-09T01:07:35.997Z,8.07
2023-05-09T01:10:14.028Z,8.11
2023-05-09T01:12:54.705Z,8.08
2023-05-09T01:15:38.003Z,7.89
2023-05-09T01:18:30.010Z,7.84
2023-05-09T01:21:01.930Z,7.84
2023-05-09T01:23:46.845Z,7.69
2023-05-09T01:26:42.368Z,7.74
2023-05-09T01:29:24.326Z,7.75
2023-05-09T01:31:53.526Z,7.67
2023-05-09T01:34:24.554Z,7.57
2023-05-09T01:36:52.103Z,7.61
2023-05-09T01:39:21.055Z,7.65
2023-05-09T01:41:49.787Z,7.68
2023-05-09T01:44:17.536Z,7.74
2023-05-09T01:46:44.882Z,7.77
2023-05-09T01:49:12.249Z,7.77
2023-05-09T01:51:40.805Z,7.75
2023-05-09T01:54:11.127Z,7.77
2023-05-09T01:56:39.184Z,7.73
2023-05-09T01:59:07.592Z,7.70
2023-05-09T02:01:35.505Z,7.68
2023-05-09T02:04:05.283Z,7.69
2023-05-09T02:06:32.802Z,7.64
2023-05-09T02:09:00.193Z,7.65
2023-05-09T02:11:26.943Z,7.64
2023-05-09T02:13:53.745Z,7.57
2023-05-09T02:16:21.252Z,7.56
2023-05-09T02:18:48.699Z,7.46
2023-05-09T02:21:15.628Z,7.40
2023-05-09T02:23:42.459Z,7.34
2023-05-09T02:26:09.500Z,7.34
2023-05-09T02:28:38.221Z,7.25
2023-05-09T02:31:09.135Z,7.26
2023-05-09T02:33:38.388Z,7.25
2023-05-09T02:36:06.152Z,7.21
2023-05-09T02:38:33.710Z,7.16
2023-05-09T02:41:02.496Z,7.15
2023-05-09T02:43:29.163Z,7.17
2023-05-09T02:45:55.831Z,7.15
2023-05-09T02:48:23.118Z,7.14
2023-05-09T02:50:49.903Z,7.09
2023-05-09T02:53:16.844Z,7.08
2023-05-09T02:55:43.641Z,7.04
2023-05-09T02:58:14.696Z,6.98
2023-05-09T03:00:43.592Z,7.00
2023-05-09T03:03:11.872Z,7.00
2023-05-09T03:05:38.753Z,6.94
2023-05-09T03:08:05.964Z,6.98
2023-05-09T03:10:34.244Z,6.98
2023-05-09T03:13:01.273Z,6.98
2023-05-09T03:15:28.157Z,6.76
2023-05-09T03:17:55.896Z,6.83
2023-05-09T03:20:22.677Z,6.83
2023-05-09T03:22:49.601Z,6.81
2023-05-09T03:25:17.343Z,6.82
2023-05-09T03:27:44.882Z,6.81
2023-05-09T03:30:15.052Z,6.64
2023-05-09T03:32:43.715Z,6.63
2023-05-09T03:35:10.423Z,6.63
2023-05-09T03:37:37.398Z,6.64
2023-05-09T03:40:07.379Z,6.61
2023-05-09T03:42:40.378Z,6.59
2023-05-09T03:45:07.761Z,6.53
2023-05-09T03:47:34.695Z,6.58
2023-05-09T03:50:01.536Z,6.53
2023-05-09T03:52:28.885Z,6.49
2023-05-09T03:54:55.831Z,6.36
2023-05-09T03:57:23.072Z,6.31
2023-05-09T03:59:52.450Z,6.27
2023-05-09T04:02:19.453Z,6.18
2023-05-09T04:04:47.497Z,6.12
2023-05-09T04:07:17.101Z,6.15
2023-05-09T04:09:45.193Z,6.26
2023-05-09T04:12:11.900Z,6.10
2023-05-09T04:14:39.290Z,5.97
2023-05-09T04:17:06.143Z,6.00
2023-05-09T04:19:32.885Z,6.06
2023-05-09T04:21:59.580Z,6.11
2023-05-09T04:24:26.675Z,6.08
2023-05-09T04:26:53.462Z,6.15
2023-05-09T04:29:23.302Z,6.25
2023-05-09T04:31:54.101Z,6.32
2023-05-09T04:34:24.932Z,6.32
2023-05-09T04:36:52.441Z,6.38
2023-05-09T04:39:19.675Z,6.49
2023-05-09T04:41:55.419Z,6.63
2023-05-09T04:44:23.515Z,6.73
2023-05-09T04:46:50.853Z,6.83
2023-05-09T04:49:17.903Z,6.69
2023-05-09T04:51:44.655Z,6.86
2023-05-09T04:54:11.511Z,6.99
2023-05-09T04:56:39.927Z,7.13
2023-05-09T04:59:07.109Z,7.26
2023-05-09T05:01:34.211Z,7.12
2023-05-09T05:04:01.144Z,7.31
2023-05-09T05:06:29.910Z,7.50
2023-05-09T05:08:56.853Z,7.67
2023-05-09T05:11:23.893Z,7.71
2023-05-09T05:13:51.226Z,7.84
2023-05-09T05:16:18.267Z,7.88
2023-05-09T05:18:45.678Z,7.85
2023-05-09T05:21:12.979Z,7.29
2023-05-09T05:23:40.169Z,7.01
2023-05-09T05:26:07.206Z,7.18
2023-05-09T05:28:35.821Z,7.41
2023-05-09T05:31:03.762Z,7.56
2023-05-09T05:33:30.536Z,7.35
2023-05-09T05:35:58.067Z,7.20
2023-05-09T05:38:26.201Z,7.13
2023-05-09T05:40:56.672Z,7.49
2023-05-09T05:43:25.223Z,7.43
2023-05-09T05:45:52.626Z,7.55
2023-05-09T05:48:24.063Z,7.85
2023-05-09T05:50:52.910Z,8.05
2023-05-09T05:53:30.883Z,8.19
2023-05-09T05:56:00.718Z,8.25
2023-05-09T05:58:28.187Z,8.01
2023-05-09T06:00:55.183Z,8.22
2023-05-09T06:03:22.024Z,8.38
2023-05-09T06:05:57.209Z,8.39
2023-05-09T06:08:23.884Z,8.09
2023-05-09T06:10:51.112Z,8.37
2023-05-09T06:13:18.104Z,8.71
2023-05-09T06:15:50.274Z,9.15
2023-05-09T06:18:17.062Z,8.56
2023-05-09T06:20:43.860Z,8.80
2023-05-09T06:23:10.528Z,8.90
2023-05-09T06:25:37.371Z,9.03
2023-05-09T06:28:04.272Z,8.70
2023-05-09T06:30:31.273Z,8.29
2023-05-09T06:32:58.712Z,8.63
2023-05-09T06:35:25.689Z,9.08
2023-05-09T06:37:52.451Z,8.44
2023-05-09T06:40:19.513Z,8.48
2023-05-09T06:42:46.229Z,9.04
2023-05-09T06:45:13.332Z,8.90
2023-05-09T06:47:40.326Z,9.18
2023-05-09T06:50:07.955Z,9.40
2023-05-09T06:52:34.799Z,9.49
2023-05-09T06:55:01.528Z,9.82
2023-05-09T06:57:28.411Z,9.78
2023-05-09T06:59:55.561Z,9.91
2023-05-09T07:02:22.268Z,9.74
2023-05-09T07:04:48.998Z,9.83
2023-05-09T07:07:16.429Z,9.92
2023-05-09T07:09:43.147Z,10.13
2023-05-09T07:12:09.889Z,10.22
2023-05-09T07:14:36.594Z,9.90
2023-05-09T07:17:21.247Z,10.34
2023-05-09T07:19:50.584Z,9.95
2023-05-09T07:22:17.396Z,9.86
2023-05-09T07:24:44.735Z,10.07
2023-05-09T07:27:11.803Z,10.24
2023-05-09T07:29:38.640Z,10.31
2023-05-09T07:32:05.598Z,10.29
2023-05-09T07:34:32.539Z,10.40
2023-05-09T07:36:59.183Z,10.40
2023-05-09T07:39:25.819Z,10.00
2023-05-09T07:41:52.697Z,10.47
2023-05-09T07:44:19.432Z,10.97
2023-05-09T07:46:46.153Z,10.88
2023-05-09T07:49:12.869Z,11.15
2023-05-09T07:51:39.522Z,11.15
2023-05-09T07:54:06.421Z,11.01
2023-05-09T07:56:33.214Z,10.93
2023-05-09T07:58:59.916Z,10.74
2023-05-09T08:01:26.621Z,10.56
2023-05-09T08:03:53.436Z,10.72
2023-05-09T08:06:20.501Z,11.10
2023-05-09T08:08:47.321Z,11.25
2023-05-09T08:11:14.073Z,11.40
2023-05-09T08:13:40.874Z,11.00
2023-05-09T08:16:07.716Z,11.10
2023-05-09T08:18:34.425Z,11.09
2023-05-09T08:21:01.301Z,11.27
2023-05-09T08:23:30.178Z,11.40
2023-05-09T08:25:57.002Z,11.61
2023-05-09T08:28:24.552Z,11.10
2023-05-09T08:30:51.908Z,10.99
2023-05-09T08:33:18.903Z,11.16
2023-05-09T08:35:45.907Z,11.58
2023-05-09T08:38:12.682Z,11.61
2023-05-09T08:40:41.162Z,11.84
2023-05-09T08:43:08.528Z,11.95
2023-05-09T08:45:39.935Z,11.83
2023-05-09T08:48:07.814Z,11.89
2023-05-09T08:50:35.714Z,12.02
2023-05-09T08:53:02.629Z,11.78
2023-05-09T08:55:29.954Z,11.99
2023-05-09T08:57:58.358Z,12.26
2023-05-09T09:00:27.978Z,12.28
2023-05-09T09:02:58.731Z,12.52
2023-05-09T09:05:40.600Z,12.62
2023-05-09T09:08:09.758Z,12.60
2023-05-09T09:10:40.714Z,12.64
2023-05-09T09:13:09.767Z,12.86
2023-05-09T09:15:38.651Z,12.81
2023-05-09T09:18:12.399Z,12.78
2023-05-09T09:20:48.800Z,13.11
2023-05-09T09:23:20.109Z,12.84
2023-05-09T09:25:48.168Z,13.10
2023-05-09T09:28:15.498Z,13.17
2023-05-09T09:30:47.669Z,13.15
2023-05-09T09:33:23.000Z,13.11
2023-05-09T09:35:51.627Z,13.31
2023-05-09T09:38:22.641Z,13.12
2023-05-09T09:40:52.252Z,13.21
2023-05-09T09:43:19.092Z,13.42
2023-05-09T09:45:53.150Z,13.27
2023-05-09T09:48:24.811Z,13.45
2023-05-09T09:50:51.680Z,13.43
2023-05-09T09:53:20.792Z,13.64
2023-05-09T09:55:53.343Z,13.36
2023-05-09T09:58:25.148Z,13.53
2023-05-09T10:01:06.933Z,13.56
2023-05-09T10:03:45.204Z,13.58
2023-05-09T10:06:13.543Z,14.08
2023-05-09T10:08:41.348Z,14.00
2023-05-09T10:11:09.551Z,14.35
2023-05-09T10:13:38.834Z,14.28
2023-05-09T10:16:08.952Z,14.31
2023-05-09T10:18:37.590Z,14.41
2023-05-09T10:21:07.439Z,14.36
2023-05-09T10:23:38.259Z,14.52
2023-05-09T10:26:23.154Z,14.56
2023-05-09T10:28:55.149Z,14.74
2023-05-09T10:31:29.659Z,14.70
2023-05-09T10:33:57.222Z,14.72
2023-05-09T10:36:24.661Z,14.55
2023-05-09T10:38:55.432Z,14.62
2023-05-09T10:41:22.902Z,14.67
2023-05-09T10:43:49.968Z,14.82
2023-05-09T10:46:17.729Z,14.87
2023-05-09T10:48:45.648Z,14.87
2023-05-09T10:51:13.249Z,14.88
2023-05-09T10:53:50.910Z,15.08
2023-05-09T10:56:31.874Z,15.19
2023-05-09T10:59:00.252Z,15.12
2023-05-09T11:01:30.893Z,15.55
2023-05-09T11:04:00.081Z,15.54
2023-05-09T11:06:46.492Z,15.70
2023-05-09T11:09:33.390Z,15.55
2023-05-09T11:12:06.394Z,15.37
2023-05-09T11:14:35.868Z,15.36
2023-05-09T11:17:05.215Z,15.58
2023-05-09T11:19:37.019Z,15.58
2023-05-09T11:22:17.559Z,15.76
2023-05-09T11:24:52.131Z,16.02
2023-05-09T11:27:24.319Z,15.97
2023-05-09T11:29:59.533Z,16.14
2023-05-09T11:32:32.757Z,16.16
2023-05-09T11:35:17.358Z,16.14
2023-05-09T11:37:48.524Z,16.23
2023-05-09T11:40:17.860Z,16.49
2023-05-09T11:42:47.392Z,16.33
2023-05-09T11:45:15.312Z,16.42
2023-05-09T11:47:43.255Z,16.52
2023-05-09T11:50:11.658Z,16.71
2023-05-09T11:52:38.873Z,16.60
2023-05-09T11:55:12.521Z,16.80
2023-05-09T11:57:50.998Z,16.96
2023-05-09T12:00:22.030Z,16.89
2023-05-09T12:02:51.113Z,16.91
2023-05-09T12:05:21.910Z,16.95
2023-05-09T12:07:49.393Z,16.91
2023-05-09T12:10:20.613Z,16.96
2023-05-09T12:12:51.837Z,17.03
2023-05-09T12:15:19.847Z,17.05
2023-05-09T12:17:48.980Z,17.00
2023-05-09T12:20:18.097Z,17.23
2023-05-09T12:22:45.077Z,17.29
2023-05-09T12:25:12.495Z,17.01
2023-05-09T12:27:41.414Z,17.24
2023-05-09T12:30:10.903Z,17.18
2023-05-09T12:32:40.547Z,17.52
2023-05-09T12:35:10.490Z,17.39
2023-05-09T12:37:37.821Z,17.44
2023-05-09T12:40:15.990Z,17.54
2023-05-09T12:42:46.419Z,17.49
2023-05-09T12:45:14.000Z,17.51
2023-05-09T12:47:45.604Z,17.34
2023-05-09T12:50:13.423Z,17.40
2023-05-09T12:52:58.428Z,17.49
2023-05-09T12:55:29.368Z,17.73
2023-05-09T12:58:01.454Z,17.40
2023-05-09T13:00:28.972Z,17.49
2023-05-09T13:02:55.827Z,17.63
2023-05-09T13:05:23.595Z,17.68
2023-05-09T13:07:52.671Z,17.78
2023-05-09T13:10:23.966Z,17.87
2023-05-09T13:12:52.074Z,17.96
2023-05-09T13:15:22.853Z,17.96
2023-05-09T13:17:51.215Z,17.89
2023-05-09T13:20:19.213Z,17.97
2023-05-09T13:22:46.166Z,18.16
2023-05-09T13:25:13.260Z,18.15
2023-05-09T13:27:39.986Z,18.26
2023-05-09T13:30:09.936Z,18.26
2023-05-09T13:32:37.008Z,18.12
2023-05-09T13:35:06.818Z,18.13
2023-05-09T13:37:36.983Z,18.27
2023-05-09T13:40:04.831Z,18.27
2023-05-09T13:42:33.777Z,18.53
2023-05-09T13:45:00.874Z,18.39
2023-05-09T13:47:27.645Z,18.18
2023-05-09T13:49:54.441Z,18.36
2023-05-09T13:52:21.168Z,18.49
2023-05-09T13:54:47.842Z,18.03
2023-05-09T13:57:14.533Z,18.24
2023-05-09T13:59:41.691Z,18.08
2023-05-09T14:02:08.780Z,18.04
2023-05-09T14:04:35.484Z,18.16
2023-05-09T14:07:02.257Z,18.26
2023-05-09T14:09:29.581Z,18.31
2023-05-09T14:11:57.213Z,18.32
2023-05-09T14:14:25.495Z,18.55
2023-05-09T14:16:52.155Z,18.57
2023-05-09T14:19:18.842Z,18.43
2023-05-09T14:21:48.953Z,18.44
2023-05-09T14:24:16.497Z,18.39
2023-05-09T14:26:43.819Z,18.50
2023-05-09T14:29:11.159Z,18.53
2023-05-09T14:31:38.064Z,18.51
2023-05-09T14:34:05.555Z,18.39
2023-05-09T14:36:32.986Z,18.54
2023-05-09T14:38:59.752Z,18.55
2023-05-09T14:41:26.891Z,18.41
2023-05-09T14:43:53.597Z,18.18
2023-05-09T14:46:20.646Z,18.39
2023-05-09T14:48:47.393Z,18.47
2023-05-09T14:51:14.362Z,18.62
2023-05-09T14:53:42.195Z,18.58
2023-05-09T14:56:11.476Z,18.49
2023-05-09T14:58:38.291Z,18.47
2023-05-09T15:01:05.651Z,18.47
2023-05-09T15:03:32.729Z,18.63
2023-05-09T15:05:59.773Z,18.64
2023-05-09T15:08:27.025Z,18.71
2023-05-09T15:10:53.935Z,18.75
2023-05-09T15:13:21.090Z,18.67
2023-05-09T15:15:47.968Z,18.69
2023-05-09T15:18:18.538Z,18.60
2023-05-09T15:20:45.602Z,18.68
2023-05-09T15:23:13.206Z,18.59
2023-05-09T15:25:41.826Z,18.54
2023-05-09T15:28:08.767Z,18.55
2023-05-09T15:30:38.290Z,18.40
2023-05-09T15:33:05.324Z,18.46
2023-05-09T15:35:32.307Z,18.50
2023-05-09T15:37:59.524Z,18.57
2023-05-09T15:40:26.489Z,18.48
2023-05-09T15:42:53.214Z,18.43
2023-05-09T15:45:19.993Z,18.26
2023-05-09T15:47:46.764Z,18.32
2023-05-09T15:50:14.241Z,18.28
2023-05-09T15:52:41.443Z,18.32
2023-05-09T15:55:09.446Z,18.31
2023-05-09T15:57:36.580Z,18.27
2023-05-09T16:00:05.585Z,18.26
2023-05-09T16:02:39.330Z,18.11
2023-05-09T16:05:06.657Z,18.19
2023-05-09T16:07:35.314Z,18.13
2023-05-09T16:10:02.779Z,18.10
2023-05-09T16:12:32.701Z,18.12
2023-05-09T16:15:00.670Z,17.90
2023-05-09T16:17:28.055Z,17.77
2023-05-09T16:19:55.662Z,17.73
2023-05-09T16:22:22.703Z,17.78
2023-05-09T16:24:49.440Z,17.60
2023-05-09T16:27:17.041Z,17.62
2023-05-09T16:29:44.079Z,17.54
2023-05-09T16:32:11.220Z,17.52
2023-05-09T16:34:37.963Z,17.45
2023-05-09T16:37:04.851Z,17.34
2023-05-09T16:39:32.706Z,17.25
2023-05-09T16:42:00.214Z,17.11
2023-05-09T16:44:27.408Z,17.09
2023-05-09T16:46:54.253Z,17.04
2023-05-09T16:49:21.098Z,16.98
2023-05-09T16:51:47.856Z,16.98
2023-05-09T16:54:14.800Z,16.98
2023-05-09T16:56:42.272Z,17.04
2023-05-09T16:59:08.959Z,17.11
2023-05-09T17:01:35.685Z,17.05
2023-05-09T17:04:02.503Z,17.03
2023-05-09T17:06:29.319Z,17.05
2023-05-09T17:08:56.243Z,16.98
2023-05-09T17:11:23.251Z,16.96
2023-05-09T17:13:50.033Z,16.96
2023-05-09T17:16:16.827Z,16.97
2023-05-09T17:18:47.474Z,16.82
2023-05-09T17:21:15.683Z,16.83
2023-05-09T17:23:42.833Z,16.72
2023-05-09T17:26:09.583Z,16.68
2023-05-09T17:28:37.060Z,16.58
2023-05-09T17:31:03.965Z,16.48
2023-05-09T17:33:30.712Z,16.35
2023-05-09T17:35:57.511Z,16.33
2023-05-09T17:38:24.218Z,16.19
2023-05-09T17:40:50.931Z,16.12
2023-05-09T17:43:21.907Z,15.99
2023-05-09T17:45:48.716Z,15.98
2023-05-09T17:48:15.973Z,15.91
2023-05-09T17:50:43.936Z,15.79
2023-05-09T17:53:10.696Z,15.75
2023-05-09T17:55:37.464Z,15.72
2023-05-09T17:58:04.153Z,15.64
2023-05-09T18:00:31.051Z,15.60
2023-05-09T18:03:00.655Z,15.55
2023-05-09T18:05:27.901Z,15.43
2023-05-09T18:07:54.627Z,15.32
2023-05-09T18:10:21.594Z,15.20
2023-05-09T18:12:48.436Z,15.24
2023-05-09T18:15:15.449Z,15.08
2023-05-09T18:17:42.329Z,14.94
2023-05-09T18:20:09.525Z,14.87
2023-05-09T18:22:37.394Z,14.79
2023-05-09T18:25:04.331Z,14.71
2023-05-09T18:27:31.222Z,14.64
2023-05-09T18:29:57.923Z,14.60
2023-05-09T18:32:25.200Z,14.53
2023-05-09T18:34:52.725Z,14.45
2023-05-09T18:37:19.904Z,14.39
2023-05-09T18:39:47.801Z,14.22
2023-05-09T18:42:16.314Z,14.13
2023-05-09T18:44:43.456Z,14.15
2023-05-09T18:47:10.327Z,14.14
2023-05-09T18:49:37.959Z,14.05
2023-05-09T18:52:04.897Z,13.96
2023-05-09T18:54:31.609Z,13.84
2023-05-09T18:56:58.554Z,13.83
2023-05-09T18:59:25.356Z,13.77
2023-05-09T19:01:52.228Z,13.70
2023-05-09T19:04:19.905Z,13.62
2023-05-09T19:06:46.916Z,13.56
2023-05-09T19:09:13.660Z,13.47
2023-05-09T19:11:40.492Z,13.41
2023-05-09T19:14:07.265Z,13.31
2023-05-09T19:16:34.113Z,13.20
2023-05-09T19:19:01.002Z,13.19
2023-05-09T19:21:28.393Z,13.17
2023-05-09T19:23:55.031Z,13.06
2023-05-09T19:26:22.193Z,12.99
2023-05-09T19:28:49.006Z,12.94
2023-05-09T19:31:16.354Z,12.78
2023-05-09T19:33:45.826Z,12.64
2023-05-09T19:36:12.999Z,12.62
2023-05-09T19:38:40.123Z,12.60
2023-05-09T19:41:07.155Z,12.50
2023-05-09T19:43:34.114Z,12.20
2023-05-09T19:46:01.720Z,12.24
2023-05-09T19:48:28.709Z,12.22
2023-05-09T19:51:01.033Z,12.19
2023-05-09T19:53:28.428Z,12.16
2023-05-09T19:55:56.226Z,12.12
2023-05-09T19:58:23.763Z,11.69
2023-05-09T20:00:50.961Z,11.69
2023-05-09T20:03:18.800Z,11.67
2023-05-09T20:05:46.241Z,11.70
2023-05-09T20:08:13.584Z,11.75
2023-05-09T20:10:40.902Z,11.86
2023-05-09T20:13:08.454Z,11.39
2023-05-09T20:15:36.616Z,11.34
2023-05-09T20:18:04.948Z,11.29
2023-05-09T20:20:32.394Z,11.47
2023-05-09T20:23:00.003Z,11.65
2023-05-09T20:25:27.355Z,11.75
2023-05-09T20:27:54.980Z,11.67
2023-05-09T20:30:22.106Z,11.70
2023-05-09T20:32:48.913Z,11.74
2023-05-09T20:35:15.870Z,11.61
2023-05-09T20:37:43.117Z,11.55
2023-05-09T20:40:10.276Z,11.41
2023-05-09T20:42:37.854Z,11.44
2023-05-09T20:45:08.419Z,11.41
2023-05-09T20:47:36.217Z,11.34
2023-05-09T20:50:07.356Z,11.22
2023-05-09T20:52:34.582Z,10.93
2023-05-09T20:55:02.328Z,10.94
2023-05-09T20:57:29.054Z,10.90
2023-05-09T20:59:55.767Z,10.91
2023-05-09T21:02:22.501Z,10.84
2023-05-09T21:04:52.082Z,10.53
2023-05-09T21:07:19.581Z,10.59
2023-05-09T21:09:47.585Z,10.60
2023-05-09T21:12:14.339Z,10.59
2023-05-09T21:14:41.144Z,10.33
2023-05-09T21:17:08.037Z,10.09
2023-05-09T21:19:35.944Z,10.13
2023-05-09T21:22:06.142Z,10.28
2023-05-09T21:24:33.391Z,10.24
2023-05-09T21:27:00.317Z,10.08
2023-05-09T21:29:26.981Z,10.11
2023-05-09T21:31:53.784Z,10.14
2023-05-09T21:34:23.955Z,10.07
2023-05-09T21:36:50.707Z,10.07
2023-05-09T21:39:17.772Z,10.05
2023-05-09T21:41:44.562Z,9.94
2023-05-09T21:44:12.199Z,9.84
2023-05-09T21:46:39.577Z,9.90
2023-05-09T21:49:06.663Z,9.88
2023-05-09T21:51:34.862Z,9.85
2023-05-09T21:54:02.241Z,9.80
2023-05-09T21:56:29.352Z,9.85
2023-05-09T21:58:56.096Z,9.82
2023-05-09T22:01:22.805Z,9.75
2023-05-09T22:03:49.579Z,9.70
2023-05-09T22:06:16.359Z,9.66
2023-05-09T22:08:43.201Z,9.58
2023-05-09T22:11:10.434Z,9.62
2023-05-09T22:13:38.563Z,9.62
2023-05-09T22:16:06.369Z,9.52
2023-05-09T22:18:33.374Z,9.21
2023-05-09T22:21:00.630Z,9.28
2023-05-09T22:23:27.504Z,9.34
2023-05-09T22:25:54.252Z,9.39
2023-05-09T22:28:20.927Z,9.32
2023-05-09T22:30:47.641Z,9.03
2023-05-09T22:33:14.398Z,9.01
2023-05-09T22:35:41.153Z,9.05
2023-05-09T22:38:07.844Z,9.07
2023-05-09T22:40:34.643Z,9.12
2023-05-09T22:43:01.394Z,9.02
2023-05-09T22:45:28.184Z,9.00
2023-05-09T22:47:55.516Z,9.00
2023-05-09T22:50:22.489Z,9.00
2023-05-09T22:52:49.227Z,8.96
2023-05-09T22:55:16.061Z,8.95
2023-05-09T22:57:42.846Z,8.94
2023-05-09T23:00:10.317Z,8.84
2023-05-09T23:02:37.652Z,8.86
2023-05-09T23:05:04.754Z,8.85
2023-05-09T23:07:31.445Z,8.85
2023-05-09T23:09:58.224Z,8.78
2023-05-09T23:12:24.957Z,8.75
2023-05-09T23:14:51.645Z,8.79
2023-05-09T23:17:18.856Z,8.79
2023-05-09T23:19:46.327Z,8.80
2023-05-09T23:22:13.678Z,8.56
2023-05-09T23:24:44.493Z,8.59
2023-05-09T23:27:13.643Z,8.58
2023-05-09T23:29:55.746Z,8.54
2023-05-09T23:32:26.225Z,8.54
2023-05-09T23:34:53.916Z,8.53
2023-05-09T23:37:21.561Z,8.48
2023-05-09T23:39:49.607Z,8.46
2023-05-09T23:42:19.305Z,8.48
2023-05-09T23:44:49.114Z,8.45
2023-05-09T23:47:17.044Z,8.43
2023-05-09T23:49:44.222Z,8.25
2023-05-09T23:52:11.913Z,8.17
2023-05-09T23:54:39.853Z,8.07
2023-05-09T23:57:08.912Z,8.18
2023-05-09T23:59:36.037Z,8.19
